createdAt,value
2023-04-12T00:00:19.795Z,10.50
2023-04-12T00:05:46.925Z,10.63
2023-04-12T00:08:15.918Z,10.61
2023-04-12T00:10:44.066Z,10.66
2023-04-12T00:13:12.141Z,10.41
2023-04-12T00:15:40.174Z,10.31
2023-04-12T00:18:08.427Z,10.14
2023-04-12T00:20:36.905Z,10.16
2023-04-12T00:23:06.748Z,10.00
2023-04-12T00:25:36.952Z,9.88
2023-04-12T00:28:05.114Z,9.75
2023-04-12T00:30:33.391Z,9.63
2023-04-12T00:33:01.350Z,9.69
2023-04-12T00:35:29.388Z,9.73
2023-04-12T00:37:57.342Z,9.65
2023-04-12T00:40:26.982Z,9.60
2023-04-12T00:42:54.915Z,9.57
2023-04-12T00:45:23.117Z,9.56
2023-04-12T00:47:51.059Z,9.52
2023-04-12T00:50:19.065Z,9.45
2023-04-12T00:52:47.497Z,9.48
2023-04-12T00:55:16.284Z,9.47
2023-04-12T00:57:45.540Z,9.54
2023-04-12T01:00:14.099Z,9.37
2023-04-12T01:02:47.490Z,9.30
2023-04-12T01:05:22.159Z,9.40
2023-04-12T01:08:06.192Z,9.31
2023-04-12T01:10:42.630Z,9.31
2023-04-12T01:13:21.311Z,9.26
2023-04-12T01:16:02.466Z,9.39
2023-04-12T01:18:34.739Z,9.27
2023-04-12T01:21:08.047Z,9.21
2023-04-12T01:23:49.100Z,9.31
2023-04-12T01:26:33.243Z,9.19
2023-04-12T01:29:09.868Z,9.21
2023-04-12T01:31:41.240Z,9.19
2023-04-12T01:34:11.987Z,9.15
2023-04-12T01:36:41.535Z,9.03
2023-04-12T01:39:09.734Z,9.23
2023-04-12T01:41:42.163Z,9.08
2023-04-12T01:44:14.378Z,9.08
2023-04-12T01:46:43.560Z,8.97
2023-04-12T01:49:12.933Z,8.90
2023-04-12T01:51:51.331Z,8.90
2023-04-12T01:54:22.927Z,8.83
2023-04-12T01:56:55.675Z,8.89
2023-04-12T01:59:27.713Z,8.84
2023-04-12T02:01:56.033Z,8.73
2023-04-12T02:04:25.460Z,8.70
2023-04-12T02:06:56.663Z,8.67
2023-04-12T02:09:25.300Z,8.57
2023-04-12T02:11:53.037Z,8.60
2023-04-12T02:14:21.944Z,8.57
2023-04-12T02:16:54.807Z,8.53
2023-04-12T02:19:23.111Z,8.50
2023-04-12T02:21:52.401Z,8.57
2023-04-12T02:24:20.598Z,8.53
2023-04-12T02:26:49.739Z,8.82
2023-04-12T02:29:17.681Z,8.43
2023-04-12T02:31:48.557Z,8.45
2023-04-12T02:34:19.508Z,8.45
2023-04-12T02:36:57.914Z,8.52
2023-04-12T02:39:26.232Z,8.65
2023-04-12T02:41:55.065Z,8.67
2023-04-12T02:44:22.778Z,8.38
2023-04-12T02:47:07.441Z,8.46
2023-04-12T02:49:38.183Z,8.52
2023-04-12T02:52:06.939Z,8.39
2023-04-12T02:54:42.608Z,8.39
2023-04-12T02:57:16.608Z,8.30
2023-04-12T02:59:47.403Z,8.29
2023-04-12T03:02:20.311Z,8.14
2023-04-12T03:04:51.131Z,8.24
2023-04-12T03:07:23.868Z,8.25
2023-04-12T03:09:53.954Z,8.50
2023-04-12T03:12:26.896Z,8.29
2023-04-12T03:15:14.658Z,8.32
2023-04-12T03:17:46.707Z,8.33
2023-04-12T03:20:18.024Z,8.32
2023-04-12T03:22:53.050Z,8.32
2023-04-12T03:25:21.197Z,8.37
2023-04-12T03:27:55.308Z,8.32
2023-04-12T03:30:29.284Z,8.21
2023-04-12T03:32:58.506Z,8.32
2023-04-12T03:35:28.951Z,8.16
2023-04-12T03:37:57.675Z,8.25
2023-04-12T03:40:25.777Z,8.34
2023-04-12T03:43:01.315Z,8.37
2023-04-12T03:45:30.035Z,8.32
2023-04-12T03:48:01.385Z,8.32
2023-04-12T03:50:44.533Z,8.36
2023-04-12T03:53:18.949Z,8.38
2023-04-12T03:55:48.176Z,8.32
2023-04-12T03:58:16.473Z,8.50
2023-04-12T04:00:46.638Z,8.47
2023-04-12T04:03:15.775Z,8.36
2023-04-12T04:06:00.797Z,8.53
2023-04-12T04:08:32.541Z,8.37
2023-04-12T04:11:00.610Z,8.47
2023-04-12T04:13:34.882Z,8.42
2023-04-12T04:16:09.707Z,8.34
2023-04-12T04:18:38.521Z,8.50
2023-04-12T04:21:10.933Z,8.45
2023-04-12T04:23:39.595Z,8.43
2023-04-12T04:26:10.146Z,8.44
2023-04-12T04:28:45.026Z,8.46
2023-04-12T04:31:17.644Z,8.28
2023-04-12T04:33:49.491Z,8.22
2023-04-12T04:36:19.658Z,8.49
2023-04-12T04:38:52.816Z,8.32
2023-04-12T04:41:39.613Z,8.35
2023-04-12T04:44:11.003Z,8.35
2023-04-12T04:46:45.072Z,8.44
2023-04-12T04:49:12.897Z,8.51
2023-04-12T04:51:42.180Z,8.35
2023-04-12T04:54:13.978Z,8.48
2023-04-12T04:56:43.189Z,8.25
2023-04-12T04:59:18.149Z,8.29
2023-04-12T05:01:53.150Z,8.23
2023-04-12T05:04:21.646Z,8.09
2023-04-12T05:06:51.157Z,8.26
2023-04-12T05:09:23.103Z,8.23
2023-04-12T05:11:56.809Z,8.19
2023-04-12T05:14:41.325Z,8.42
2023-04-12T05:17:12.937Z,8.32
2023-04-12T05:19:43.786Z,8.31
2023-04-12T05:22:14.679Z,8.33
2023-04-12T05:24:42.493Z,8.22
2023-04-12T05:27:10.570Z,8.16
2023-04-12T05:29:38.415Z,8.31
2023-04-12T05:32:08.648Z,8.21
2023-04-12T05:34:38.779Z,8.26
2023-04-12T05:37:06.847Z,8.23
2023-04-12T05:39:39.865Z,8.10
2023-04-12T05:42:10.892Z,8.17
2023-04-12T05:44:39.887Z,8.09
2023-04-12T05:47:11.828Z,8.10
2023-04-12T05:49:39.902Z,8.00
2023-04-12T05:52:10.494Z,8.21
2023-04-12T05:54:39.818Z,8.25
2023-04-12T05:57:09.839Z,8.08
2023-04-12T05:59:37.705Z,8.07
2023-04-12T06:02:06.207Z,8.01
2023-04-12T06:04:48.820Z,8.11
2023-04-12T06:07:19.190Z,8.06
2023-04-12T06:09:49.685Z,7.95
2023-04-12T06:12:18.260Z,8.00
2023-04-12T06:14:47.971Z,8.10
2023-04-12T06:17:16.130Z,8.12
2023-04-12T06:19:45.200Z,8.24
2023-04-12T06:22:13.261Z,8.03
2023-04-12T06:24:45.851Z,8.17
2023-04-12T06:27:15.661Z,8.05
2023-04-12T06:29:43.929Z,8.03
2023-04-12T06:32:11.975Z,8.13
2023-04-12T06:34:39.811Z,8.14
2023-04-12T06:37:13.139Z,7.98
2023-04-12T06:39:40.933Z,8.04
2023-04-12T06:42:08.725Z,8.05
2023-04-12T06:44:41.434Z,8.20
2023-04-12T06:47:09.457Z,8.30
2023-04-12T06:49:37.575Z,8.32
2023-04-12T06:52:05.636Z,8.42
2023-04-12T06:54:33.787Z,8.39
2023-04-12T06:57:01.990Z,8.43
2023-04-12T06:59:30.096Z,8.43
2023-04-12T07:01:59.199Z,8.54
2023-04-12T07:04:27.051Z,8.39
2023-04-12T07:06:54.985Z,8.50
2023-04-12T07:09:22.939Z,8.43
2023-04-12T07:11:51.141Z,8.53
2023-04-12T07:14:18.872Z,8.59
2023-04-12T07:16:46.643Z,8.58
2023-04-12T07:19:16.500Z,8.64
2023-04-12T07:21:44.193Z,8.62
2023-04-12T07:24:11.981Z,8.67
2023-04-12T07:26:39.721Z,8.61
2023-04-12T07:29:07.743Z,8.66
2023-04-12T07:31:36.062Z,8.73
2023-04-12T07:34:03.931Z,8.71
2023-04-12T07:36:33.403Z,8.79
2023-04-12T07:39:01.176Z,8.85
2023-04-12T07:41:29.528Z,8.84
2023-04-12T07:43:57.603Z,8.83
2023-04-12T07:46:25.476Z,8.81
2023-04-12T07:48:53.355Z,8.83
2023-04-12T07:51:21.490Z,8.83
2023-04-12T07:53:51.741Z,8.80
2023-04-12T07:56:20.038Z,8.78
2023-04-12T07:58:47.959Z,8.58
2023-04-12T08:01:16.885Z,8.77
2023-04-12T08:03:44.842Z,8.81
2023-04-12T08:06:12.713Z,8.67
2023-04-12T08:08:40.707Z,8.71
2023-04-12T08:11:10.445Z,8.76
2023-04-12T08:13:38.282Z,8.76
2023-04-12T08:16:08.351Z,8.74
2023-04-12T08:18:36.284Z,8.84
2023-04-12T08:21:04.285Z,8.89
2023-04-12T08:23:32.472Z,9.02
2023-04-12T08:26:03.546Z,8.99
2023-04-12T08:28:33.674Z,9.07
2023-04-12T08:31:01.626Z,9.05
2023-04-12T08:33:31.201Z,9.43
2023-04-12T08:35:59.388Z,9.43
2023-04-12T08:38:41.391Z,9.42
2023-04-12T08:41:13.999Z,9.51
2023-04-12T08:43:46.123Z,9.39
2023-04-12T08:46:16.633Z,9.22
2023-04-12T08:48:46.402Z,9.32
2023-04-12T08:51:15.713Z,9.29
2023-04-12T08:53:43.554Z,9.31
2023-04-12T08:56:12.177Z,9.41
2023-04-12T08:58:41.639Z,9.40
2023-04-12T09:01:14.812Z,9.58
2023-04-12T09:03:43.424Z,9.37
2023-04-12T09:06:12.028Z,9.49
2023-04-12T09:08:52.174Z,9.58
2023-04-12T09:11:24.650Z,9.51
2023-04-12T09:13:52.838Z,9.47
2023-04-12T09:16:38.112Z,9.58
2023-04-12T09:19:06.334Z,9.50
2023-04-12T09:21:35.655Z,9.55
2023-04-12T09:24:06.059Z,9.63
2023-04-12T09:26:33.814Z,9.60
2023-04-12T09:29:01.616Z,9.64
2023-04-12T09:31:29.345Z,9.76
2023-04-12T09:34:07.750Z,10.00
2023-04-12T09:36:39.477Z,9.96
2023-04-12T09:39:07.687Z,10.11
2023-04-12T09:41:36.453Z,10.10
2023-04-12T09:44:04.496Z,10.35
2023-04-12T09:46:32.494Z,10.24
2023-04-12T09:49:03.448Z,10.45
2023-04-12T09:51:33.414Z,10.50
2023-04-12T09:54:02.984Z,10.34
2023-04-12T09:56:32.442Z,10.11
2023-04-12T09:59:03.879Z,10.21
2023-04-12T10:01:36.136Z,10.24
2023-04-12T10:04:07.262Z,10.23
2023-04-12T10:06:35.854Z,10.25
2023-04-12T10:09:05.000Z,10.27
2023-04-12T10:11:33.906Z,10.39
2023-04-12T10:14:03.400Z,10.56
2023-04-12T10:16:32.032Z,10.90
2023-04-12T10:19:03.685Z,11.28
2023-04-12T10:21:32.855Z,11.40
2023-04-12T10:24:00.927Z,11.99
2023-04-12T10:26:28.913Z,12.38
2023-04-12T10:29:24.336Z,12.40
2023-04-12T10:31:52.296Z,12.19
2023-04-12T10:34:25.029Z,12.02
2023-04-12T10:36:56.027Z,12.00
2023-04-12T10:39:40.219Z,11.79
2023-04-12T10:42:23.803Z,11.71
2023-04-12T10:44:53.156Z,11.73
2023-04-12T10:48:01.552Z,11.70
2023-04-12T10:50:31.241Z,11.73
2023-04-12T10:53:27.744Z,11.26
2023-04-12T10:55:55.597Z,10.44
2023-04-12T10:58:57.769Z,10.62
2023-04-12T11:01:28.384Z,10.35
2023-04-12T11:04:16.688Z,10.17
2023-04-12T11:06:59.597Z,10.42
2023-04-12T11:09:48.569Z,10.37
2023-04-12T11:12:27.636Z,10.30
2023-04-12T11:15:01.543Z,10.46
2023-04-12T11:17:53.940Z,10.68
2023-04-12T11:20:21.813Z,10.69
2023-04-12T11:22:51.872Z,10.86
2023-04-12T11:25:21.191Z,10.88
2023-04-12T11:27:52.568Z,11.07
2023-04-12T11:30:20.648Z,11.52
2023-04-12T11:32:48.747Z,11.27
2023-04-12T11:35:17.049Z,11.35
2023-04-12T11:37:45.783Z,11.23
2023-04-12T11:40:14.044Z,11.34
2023-04-12T11:42:43.427Z,11.59
2023-04-12T11:45:17.877Z,11.73
2023-04-12T11:47:47.022Z,11.69
2023-04-12T11:50:28.418Z,11.94
2023-04-12T11:52:56.119Z,11.84
2023-04-12T11:55:24.043Z,12.21
2023-04-12T11:57:55.893Z,12.68
2023-04-12T12:00:25.442Z,12.96
2023-04-12T12:03:06.587Z,13.04
2023-04-12T12:05:37.914Z,12.59
2023-04-12T12:08:07.869Z,12.63
2023-04-12T12:10:46.389Z,12.76
2023-04-12T12:13:21.381Z,12.56
2023-04-12T12:15:52.721Z,12.44
2023-04-12T12:18:21.121Z,12.63
2023-04-12T12:20:50.556Z,12.23
2023-04-12T12:23:32.672Z,12.72
2023-04-12T12:26:16.850Z,12.58
2023-04-12T12:28:50.804Z,12.52
2023-04-12T12:31:22.199Z,12.37
2023-04-12T12:33:52.501Z,12.66
2023-04-12T12:36:21.341Z,12.55
2023-04-12T12:38:51.182Z,12.63
2023-04-12T12:41:21.157Z,12.57
2023-04-12T12:43:52.547Z,12.63
2023-04-12T12:46:21.446Z,12.73
2023-04-12T12:48:49.811Z,12.87
2023-04-12T12:51:18.073Z,12.86
2023-04-12T12:53:46.310Z,13.18
2023-04-12T12:56:15.368Z,13.01
2023-04-12T12:58:43.297Z,13.37
2023-04-12T13:01:12.727Z,13.32
2023-04-12T13:03:40.630Z,13.49
2023-04-12T13:06:09.948Z,13.61
2023-04-12T13:08:37.862Z,13.81
2023-04-12T13:11:06.189Z,13.62
2023-04-12T13:13:33.947Z,13.38
2023-04-12T13:16:01.767Z,13.44
2023-04-12T13:18:30.903Z,13.35
2023-04-12T13:20:58.765Z,13.20
2023-04-12T13:23:26.509Z,13.50
2023-04-12T13:25:54.499Z,13.51
2023-04-12T13:28:22.773Z,13.13
2023-04-12T13:30:50.765Z,13.10
2023-04-12T13:33:21.609Z,13.08
2023-04-12T13:35:51.605Z,12.95
2023-04-12T13:38:19.795Z,12.87
2023-04-12T13:40:47.852Z,12.91
2023-04-12T13:43:16.495Z,12.76
2023-04-12T13:45:44.842Z,12.50
2023-04-12T13:48:12.685Z,12.49
2023-04-12T13:50:40.627Z,11.76
2023-04-12T13:53:09.907Z,11.55
2023-04-12T13:55:37.897Z,11.64
2023-04-12T13:58:05.661Z,11.23
2023-04-12T14:00:33.517Z,11.13
2023-04-12T14:03:02.542Z,11.42
2023-04-12T14:05:30.546Z,11.59
2023-04-12T14:08:00.826Z,11.48
2023-04-12T14:10:30.036Z,11.41
2023-04-12T14:12:57.806Z,11.15
2023-04-12T14:15:25.761Z,11.33
2023-04-12T14:17:56.106Z,11.00
2023-04-12T14:20:24.572Z,10.95
2023-04-12T14:22:52.343Z,10.79
2023-04-12T14:25:21.360Z,10.72
2023-04-12T14:27:50.644Z,10.87
2023-04-12T14:30:19.146Z,10.15
2023-04-12T14:32:50.396Z,10.31
2023-04-12T14:35:18.406Z,10.24
2023-04-12T14:37:47.666Z,10.39
2023-04-12T14:40:16.307Z,10.46
2023-04-12T14:42:44.130Z,10.52
2023-04-12T14:45:14.686Z,10.67
2023-04-12T14:47:45.614Z,10.66
2023-04-12T14:50:13.475Z,10.62
2023-04-12T14:52:41.173Z,10.61
2023-04-12T14:55:10.571Z,10.79
2023-04-12T14:57:38.335Z,10.54
2023-04-12T15:00:13.043Z,10.20
2023-04-12T15:02:44.407Z,10.37
2023-04-12T15:05:12.958Z,10.46
2023-04-12T15:07:41.368Z,10.13
2023-04-12T15:10:10.782Z,10.12
2023-04-12T15:12:39.195Z,10.21
2023-04-12T15:15:08.513Z,9.78
2023-04-12T15:17:37.557Z,9.71
2023-04-12T15:20:12.835Z,9.73
2023-04-12T15:22:41.378Z,9.95
2023-04-12T15:25:15.598Z,9.86
2023-04-12T15:27:44.544Z,9.75
2023-04-12T15:30:15.451Z,9.56
2023-04-12T15:32:43.841Z,9.71
2023-04-12T15:35:26.178Z,9.91
2023-04-12T15:37:55.862Z,9.60
2023-04-12T15:40:24.772Z,9.91
2023-04-12T15:42:53.579Z,9.96
2023-04-12T15:45:22.114Z,9.89
2023-04-12T15:47:50.361Z,10.12
2023-04-12T15:50:20.190Z,10.20
2023-04-12T15:52:49.336Z,10.15
2023-04-12T15:55:20.421Z,10.19
2023-04-12T15:57:48.427Z,10.17
2023-04-12T16:00:24.563Z,10.00
2023-04-12T16:02:56.311Z,9.93
2023-04-12T16:05:26.540Z,10.06
2023-04-12T16:07:56.746Z,9.91
2023-04-12T16:10:24.734Z,10.23
2023-04-12T16:12:54.218Z,9.98
2023-04-12T16:15:22.261Z,9.86
2023-04-12T16:17:51.763Z,9.88
2023-04-12T16:20:21.660Z,9.84
2023-04-12T16:22:54.117Z,9.86
2023-04-12T16:25:22.079Z,9.89
2023-04-12T16:27:50.146Z,9.53
2023-04-12T16:30:18.120Z,9.31
2023-04-12T16:32:47.660Z,9.36
2023-04-12T16:35:16.391Z,9.31
2023-04-12T16:37:44.802Z,9.40
2023-04-12T16:40:14.759Z,9.35
2023-04-12T16:42:43.078Z,9.56
2023-04-12T16:45:14.290Z,9.32
2023-04-12T16:47:42.732Z,9.48
2023-04-12T16:50:13.081Z,9.39
2023-04-12T16:52:41.141Z,9.41
2023-04-12T16:55:11.393Z,9.20
2023-04-12T16:57:42.946Z,9.34
2023-04-12T17:00:19.522Z,8.97
2023-04-12T17:02:49.688Z,9.01
2023-04-12T17:05:19.684Z,9.13
2023-04-12T17:07:49.566Z,9.12
2023-04-12T17:10:18.774Z,9.32
2023-04-12T17:12:48.962Z,9.31
2023-04-12T17:15:18.700Z,9.30
2023-04-12T17:17:47.991Z,9.39
2023-04-12T17:20:16.860Z,9.28
2023-04-12T17:22:44.848Z,9.22
2023-04-12T17:25:13.226Z,9.11
2023-04-12T17:27:42.024Z,9.32
2023-04-12T17:30:13.234Z,9.42
2023-04-12T17:32:41.387Z,9.32
2023-04-12T17:35:09.998Z,9.22
2023-04-12T17:37:38.271Z,9.24
2023-04-12T17:40:08.381Z,9.24
2023-04-12T17:42:36.452Z,9.30
2023-04-12T17:45:04.211Z,9.22
2023-04-12T17:47:34.651Z,9.10
2023-04-12T17:50:02.686Z,9.06
2023-04-12T17:52:31.400Z,9.10
2023-04-12T17:54:59.203Z,9.05
2023-04-12T17:57:27.580Z,8.88
2023-04-12T17:59:55.378Z,9.04
2023-04-12T18:02:23.645Z,8.98
2023-04-12T18:04:53.130Z,8.80
2023-04-12T18:07:21.312Z,8.82
2023-04-12T18:09:49.409Z,8.79
2023-04-12T18:12:17.655Z,8.85
2023-04-12T18:14:45.592Z,8.69
2023-04-12T18:17:13.650Z,8.58
2023-04-12T18:19:41.446Z,8.60
2023-04-12T18:22:10.597Z,8.40
2023-04-12T18:24:38.658Z,8.40
2023-04-12T18:27:07.102Z,8.48
2023-04-12T18:29:34.982Z,8.37
2023-04-12T18:32:02.703Z,8.21
2023-04-12T18:34:30.490Z,8.36
2023-04-12T18:36:59.766Z,8.25
2023-04-12T18:39:29.296Z,8.26
2023-04-12T18:41:58.083Z,8.29
2023-04-12T18:44:26.235Z,8.30
2023-04-12T18:46:54.040Z,8.28
2023-04-12T18:49:21.915Z,8.32
2023-04-12T18:51:49.623Z,8.08
2023-04-12T18:54:17.564Z,8.13
2023-04-12T18:56:46.735Z,8.25
2023-04-12T18:59:17.545Z,8.09
2023-04-12T19:01:46.237Z,8.03
2023-04-12T19:04:16.528Z,8.10
2023-04-12T19:06:45.104Z,8.33
2023-04-12T19:09:12.941Z,8.07
2023-04-12T19:11:40.842Z,8.01
2023-04-12T19:14:10.605Z,8.13
2023-04-12T19:16:38.736Z,8.25
2023-04-12T19:19:07.217Z,8.21
2023-04-12T19:21:35.621Z,8.15
2023-04-12T19:24:03.592Z,8.20
2023-04-12T19:26:31.856Z,8.08
2023-04-12T19:29:00.001Z,8.02
2023-04-12T19:31:29.367Z,7.94
2023-04-12T19:33:57.739Z,7.94
2023-04-12T19:36:25.952Z,7.88
2023-04-12T19:38:53.750Z,7.90
2023-04-12T19:41:21.719Z,7.94
2023-04-12T19:43:50.335Z,7.93
2023-04-12T19:46:18.579Z,7.88
2023-04-12T19:48:48.743Z,7.93
2023-04-12T19:51:16.823Z,7.80
2023-04-12T19:53:46.202Z,7.92
2023-04-12T19:56:14.991Z,7.96
2023-04-12T19:58:44.375Z,7.99
2023-04-12T20:01:13.658Z,7.99
2023-04-12T20:03:43.781Z,7.99
2023-04-12T20:06:13.005Z,7.87
2023-04-12T20:08:40.852Z,8.00
2023-04-12T20:11:08.932Z,8.01
2023-04-12T20:13:37.119Z,8.03
2023-04-12T20:16:05.294Z,8.23
2023-04-12T20:18:33.252Z,8.19
2023-04-12T20:21:00.939Z,8.10
2023-04-12T20:23:30.080Z,8.16
2023-04-12T20:25:57.883Z,8.15
2023-04-12T20:28:25.802Z,8.03
2023-04-12T20:30:53.735Z,8.08
2023-04-12T20:33:21.702Z,7.90
2023-04-12T20:35:50.748Z,7.75
2023-04-12T20:38:19.264Z,7.32
2023-04-12T20:40:48.301Z,7.35
2023-04-12T20:43:16.701Z,7.43
2023-04-12T20:45:46.890Z,7.30
2023-04-12T20:48:14.866Z,7.20
2023-04-12T20:50:42.655Z,7.15
2023-04-12T20:53:15.072Z,6.98
2023-04-12T20:55:44.149Z,7.05
2023-04-12T20:58:14.515Z,7.00
2023-04-12T21:00:42.704Z,6.95
2023-04-12T21:03:12.435Z,6.96
2023-04-12T21:05:40.506Z,6.84
2023-04-12T21:08:08.896Z,7.00
2023-04-12T21:10:36.646Z,7.02
2023-04-12T21:13:04.405Z,7.01
2023-04-12T21:15:35.346Z,6.90
2023-04-12T21:18:04.124Z,6.96
2023-04-12T21:20:32.050Z,6.92
2023-04-12T21:22:59.893Z,6.99
2023-04-12T21:25:27.580Z,7.06
2023-04-12T21:27:55.216Z,6.79
2023-04-12T21:30:23.263Z,6.83
2023-04-12T21:32:53.764Z,6.83
2023-04-12T21:35:22.697Z,6.75
2023-04-12T21:37:51.617Z,6.45
2023-04-12T21:40:19.433Z,6.64
2023-04-12T21:42:47.192Z,6.53
2023-04-12T21:45:15.003Z,6.59
2023-04-12T21:47:43.548Z,6.55
2023-04-12T21:50:13.178Z,6.51
2023-04-12T21:52:41.260Z,6.32
2023-04-12T21:55:09.080Z,6.58
2023-04-12T21:57:36.926Z,6.52
2023-04-12T22:00:08.672Z,6.44
2023-04-12T22:02:42.683Z,6.34
2023-04-12T22:05:12.384Z,6.49
2023-04-12T22:07:41.269Z,6.51
2023-04-12T22:10:11.917Z,6.52
2023-04-12T22:12:39.896Z,6.52
2023-04-12T22:15:09.011Z,6.36
2023-04-12T22:17:37.842Z,6.32
2023-04-12T22:20:08.595Z,6.57
2023-04-12T22:22:38.199Z,6.36
2023-04-12T22:25:08.453Z,6.24
2023-04-12T22:27:37.098Z,6.19
2023-04-12T22:30:05.615Z,6.14
2023-04-12T22:32:33.746Z,6.17
2023-04-12T22:35:07.670Z,6.28
2023-04-12T22:37:38.894Z,6.34
2023-04-12T22:40:11.564Z,6.26
2023-04-12T22:42:46.566Z,6.40
2023-04-12T22:45:14.873Z,6.33
2023-04-12T22:47:43.148Z,6.23
2023-04-12T22:50:12.697Z,6.30
2023-04-12T22:52:42.439Z,6.30
2023-04-12T22:55:12.791Z,6.18
2023-04-12T22:57:40.685Z,6.21
2023-04-12T23:00:14.957Z,6.17
2023-04-12T23:02:46.022Z,6.13
2023-04-12T23:05:14.413Z,6.37
2023-04-12T23:07:44.009Z,6.28
2023-04-12T23:10:12.386Z,6.43
2023-04-12T23:12:40.237Z,6.49
2023-04-12T23:15:09.061Z,6.48
2023-04-12T23:17:37.249Z,6.53
2023-04-12T23:20:09.852Z,6.51
2023-04-12T23:22:57.269Z,6.47
2023-04-12T23:25:39.312Z,6.54
2023-04-12T23:28:12.938Z,6.58
2023-04-12T23:30:43.720Z,6.68
2023-04-12T23:33:12.638Z,6.75
2023-04-12T23:35:41.781Z,6.77
2023-04-12T23:38:10.170Z,6.80
2023-04-12T23:40:40.313Z,6.80
2023-04-12T23:43:09.081Z,6.82
2023-04-12T23:45:37.005Z,6.82
2023-04-12T23:48:06.739Z,6.77
2023-04-12T23:50:34.934Z,6.69
2023-04-12T23:53:03.556Z,6.86
2023-04-12T23:55:31.683Z,6.80
2023-04-12T23:58:01.002Z,6.83
